Time;durP1;ratioP1;P1;durP2;ratioP2;P2;SDS_P1;SDS_P2;PMS_P1;PMS_P2;Temp;Humidity;BMP_temperature;BMP_pressure;BME280_temperature;BME280_humidity;BME280_pressure;Samples;Min_cycle;Max_cycle;Signal;HPM_P1;HPM_P2
2021/12/26 00:01:36;;;;;;;14.35;8.53;;;;;;;7.18;98.73;99721.44;1758690;80;21002;-68
2021/12/26 00:04:06;;;;;;;12.15;8.28;;;;;;;7.20;98.54;99717.39;1757162;80;20995;-58
2021/12/26 00:06:32;;;;;;;11.70;7.70;;;;;;;7.16;99.87;99727.77;1760477;80;20955;-59
2021/12/26 00:08:59;;;;;;;12.63;8.50;;;;;;;7.21;99.53;99741.03;1721714;81;21145;-60
2021/12/26 00:11:26;;;;;;;11.75;7.95;;;;;;;7.33;98.97;99734.45;1727370;82;21006;-59
2021/12/26 00:13:55;;;;;;;12.90;8.33;;;;;;;7.47;95.93;99727.20;1757135;80;22369;-60
2021/12/26 00:16:25;;;;;;;10.08;6.45;;;;;;;7.39;95.32;99735.06;1759231;80;21434;-60
2021/12/26 00:18:52;;;;;;;11.38;7.30;;;;;;;7.45;92.58;99742.12;1752112;80;21081;-60
2021/12/26 00:21:21;;;;;;;10.95;6.85;;;;;;;7.38;92.87;99742.50;1750518;81;21150;-60
2021/12/26 00:23:47;;;;;;;8.58;5.87;;;;;;;7.23;93.26;99738.56;1751209;80;20999;-59
2021/12/26 00:26:14;;;;;;;8.80;4.85;;;;;;;7.25;93.41;99738.41;1750981;81;21074;-58
2021/12/26 00:28:40;;;;;;;8.53;5.37;;;;;;;7.24;91.05;99730.32;1722174;82;21094;-58
2021/12/26 00:31:07;;;;;;;7.95;4.78;;;;;;;7.01;92.56;99727.73;1723327;82;20964;-59
2021/12/26 00:33:35;;;;;;;9.30;5.75;;;;;;;6.81;95.39;99733.34;1719622;82;21003;-68
2021/12/26 00:36:03;;;;;;;8.68;4.97;;;;;;;6.87;95.99;99733.66;1714119;82;21089;-59
2021/12/26 00:38:32;;;;;;;8.65;5.37;;;;;;;6.78;97.58;99731.12;1716843;82;20930;-59
2021/12/26 00:41:00;;;;;;;9.35;5.00;;;;;;;6.86;97.12;99731.56;1716493;82;21075;-59
2021/12/26 00:43:28;;;;;;;8.53;5.17;;;;;;;6.84;97.03;99724.43;1716174;82;21155;-64
2021/12/26 00:45:56;;;;;;;8.98;5.12;;;;;;;6.62;97.83;99722.62;1717143;82;21155;-60
2021/12/26 00:48:22;;;;;;;8.63;4.87;;;;;;;6.72;98.60;99718.84;1714041;82;21629;-60
2021/12/26 00:50:49;;;;;;;10.68;5.50;;;;;;;6.72;98.92;99698.61;1717612;82;21537;-59
2021/12/26 00:53:16;;;;;;;8.13;4.67;;;;;;;6.89;96.82;99697.51;1716888;82;21555;-59
2021/12/26 00:55:43;;;;;;;8.05;4.67;;;;;;;7.03;92.96;99698.55;1716499;82;21571;-60
2021/12/26 00:58:09;;;;;;;9.65;4.92;;;;;;;6.65;95.22;99695.89;1716460;82;21143;-59
2021/12/26 01:00:40;;;;;;;7.25;4.58;;;;;;;6.81;96.00;99702.26;1717527;82;21606;-60
2021/12/26 01:03:08;;;;;;;7.97;4.62;;;;;;;6.96;94.23;99704.91;1717041;82;21625;-62
2021/12/26 01:05:36;;;;;;;9.88;5.30;;;;;;;7.03;91.80;99698.06;1716761;82;21448;-63
2021/12/26 01:08:08;;;;;;;7.67;4.97;;;;;;;6.76;95.52;99697.28;1716421;82;21543;-59
2021/12/26 01:10:42;;;;;;;8.65;5.65;;;;;;;6.86;94.53;99695.28;1717484;82;21151;-61
2021/12/26 01:15:48;;;;;;;9.58;5.15;;;;;;;7.15;92.87;99701.54;1715339;82;21095;-64
2021/12/26 01:18:17;;;;;;;7.58;4.45;;;;;;;6.96;91.95;99701.52;1711480;82;21538;-59
2021/12/26 01:23:15;;;;;;;7.62;4.10;;;;;;;6.91;95.17;99711.11;1755500;81;21023;-65
2021/12/26 01:25:44;;;;;;;6.95;4.03;;;;;;;6.93;94.81;99731.66;1750093;81;21679;-69
2021/12/26 01:28:12;;;;;;;7.85;4.25;;;;;;;6.59;98.42;99739.29;1753205;81;21090;-58
2021/12/26 01:30:40;;;;;;;6.25;3.60;;;;;;;6.60;99.15;99744.81;1718993;83;21498;-59
2021/12/26 01:33:11;;;;;;;6.15;3.30;;;;;;;6.49;100.00;99760.23;1716306;83;21537;-72
2021/12/26 01:35:42;;;;;;;6.10;2.30;;;;;;;6.83;97.83;99765.57;1716139;82;21233;-61
2021/12/26 01:38:13;;;;;;;4.50;2.15;;;;;;;6.78;97.00;99779.50;1753620;81;20919;-61
2021/12/26 01:40:48;;;;;;;4.22;1.60;;;;;;;6.69;96.40;99785.22;1718308;82;20904;-60
2021/12/26 01:43:21;;;;;;;4.05;2.02;;;;;;;6.87;92.68;99789.36;1753193;81;21002;-70
2021/12/26 01:45:52;;;;;;;4.80;2.00;;;;;;;6.68;92.30;99792.68;1719257;82;21551;-60
2021/12/26 01:48:22;;;;;;;4.60;1.92;;;;;;;6.60;93.70;99790.63;1757340;81;21138;-60
2021/12/26 01:50:53;;;;;;;5.15;1.52;;;;;;;6.82;92.58;99788.09;1753882;81;21011;-68
2021/12/26 01:53:23;;;;;;;3.58;1.47;;;;;;;6.79;90.06;99761.22;1749809;81;22259;-70
2021/12/26 01:55:49;;;;;;;3.20;1.40;;;;;;;6.90;86.83;99743.19;1750914;81;22252;-60
2021/12/26 01:58:29;;;;;;;4.08;1.87;;;;;;;6.67;87.14;99722.94;1713000;83;22514;-60
2021/12/26 02:01:02;;;;;;;5.50;2.50;;;;;;;6.61;87.26;99717.93;1718436;83;21143;-60
2021/12/26 02:03:29;;;;;;;4.62;2.30;;;;;;;6.63;87.08;99734.58;1744725;81;21063;-61
2021/12/26 02:05:56;;;;;;;4.55;2.40;;;;;;;6.55;86.96;99735.43;1753895;81;21006;-59
2021/12/26 02:08:24;;;;;;;4.95;1.82;;;;;;;6.29;90.38;99748.19;1754512;81;20900;-69
2021/12/26 02:10:51;;;;;;;4.80;1.87;;;;;;;6.31;91.33;99756.57;1753879;81;20997;-69
2021/12/26 02:13:18;;;;;;;3.72;1.65;;;;;;;6.66;89.04;99754.47;1754231;81;22736;-59
2021/12/26 02:15:44;;;;;;;4.58;1.62;;;;;;;6.62;88.21;99762.76;1755736;81;21913;-60
2021/12/26 02:18:13;;;;;;;3.00;1.40;;;;;;;6.43;90.72;99766.56;1722366;82;20904;-60
2021/12/26 02:23:14;;;;;;;3.52;1.80;;;;;;;6.67;89.12;99774.73;1723835;82;21094;-60
2021/12/26 02:28:12;;;;;;;5.62;2.60;;;;;;;6.72;88.05;99764.66;1724363;82;20940;-59
2021/12/26 02:30:39;;;;;;;5.60;2.60;;;;;;;6.80;88.12;99781.45;1724671;82;21020;-68
2021/12/26 02:33:10;;;;;;;4.65;1.95;;;;;;;6.51;90.93;99784.16;1724104;82;21131;-59
2021/12/26 02:35:34;;;;;;;5.90;2.25;;;;;;;6.61;90.88;99777.49;1724751;82;20991;-59
2021/12/26 02:38:01;;;;;;;4.90;1.87;;;;;;;6.51;90.64;99766.03;1729856;82;21148;-61
2021/12/26 02:40:28;;;;;;;6.42;2.30;;;;;;;6.60;90.10;99767.31;1729181;81;21050;-65
2021/12/26 02:42:57;;;;;;;4.65;2.45;;;;;;;6.53;89.91;99769.27;1728563;82;21014;-67
2021/12/26 02:45:24;;;;;;;7.35;2.85;;;;;;;6.74;90.05;99787.30;1729476;82;21122;-59
2021/12/26 02:47:51;;;;;;;6.50;2.83;;;;;;;6.88;89.83;99800.83;1709598;82;21078;-59
2021/12/26 02:50:28;;;;;;;4.33;2.00;;;;;;;7.10;88.20;99802.34;1730779;82;21146;-62
2021/12/26 02:52:57;;;;;;;4.83;2.55;;;;;;;6.81;88.86;99787.74;1731794;81;21543;-65
2021/12/26 02:55:23;;;;;;;6.08;2.12;;;;;;;6.56;93.24;99785.77;1730650;81;21077;-58
2021/12/26 02:57:53;;;;;;;5.10;2.05;;;;;;;6.31;97.67;99789.42;1732292;82;21552;-59
2021/12/26 03:00:23;;;;;;;5.17;2.30;;;;;;;6.51;95.88;99780.27;1732290;81;20944;-59
2021/12/26 03:02:52;;;;;;;4.72;2.22;;;;;;;6.49;94.77;99780.14;1731768;82;21111;-66
2021/12/26 03:05:20;;;;;;;4.15;2.00;;;;;;;6.53;96.11;99786.11;1730478;82;21388;-59
2021/12/26 03:07:47;;;;;;;3.87;1.82;;;;;;;6.49;94.56;99787.91;1732752;82;21490;-58
2021/12/26 03:10:24;;;;;;;5.58;2.83;;;;;;;6.65;93.45;99788.33;1731975;81;20952;-62
2021/12/26 03:12:58;;;;;;;5.35;2.15;;;;;;;6.67;92.14;99788.98;1732111;82;21108;-59
2021/12/26 03:15:26;;;;;;;5.80;2.15;;;;;;;6.87;91.00;99783.69;1729955;82;21817;-58
2021/12/26 03:17:54;;;;;;;5.17;1.92;;;;;;;7.08;87.14;99789.53;1733105;81;21544;-58
2021/12/26 03:20:25;;;;;;;6.72;2.85;;;;;;;6.93;86.40;99780.42;1719857;82;20995;-58
2021/12/26 03:22:51;;;;;;;4.53;2.25;;;;;;;6.73;86.91;99788.28;1721637;82;21007;-64
2021/12/26 03:25:22;;;;;;;5.50;2.37;;;;;;;6.67;88.32;99780.72;1720028;82;21560;-60
2021/12/26 03:27:50;;;;;;;5.72;2.65;;;;;;;6.47;88.57;99779.00;1712083;82;21132;-59
2021/12/26 03:30:22;;;;;;;6.22;2.15;;;;;;;6.47;89.02;99793.73;1719897;82;21019;-58
2021/12/26 03:32:49;;;;;;;4.20;1.85;;;;;;;6.61;87.91;99793.03;1721317;82;21645;-62
2021/12/26 03:35:19;;;;;;;4.70;2.17;;;;;;;6.42;88.24;99790.84;1719829;82;20984;-58
2021/12/26 03:37:46;;;;;;;5.10;2.15;;;;;;;6.32;89.76;99794.91;1722175;82;21067;-57
2021/12/26 03:40:32;;;;;;;5.22;2.12;;;;;;;6.63;88.94;99787.67;1722643;82;21171;-57
2021/12/26 03:42:59;;;;;;;3.60;1.98;;;;;;;6.61;87.64;99790.94;1716045;82;20995;-62
2021/12/26 03:45:25;;;;;;;3.55;1.57;;;;;;;6.39;88.53;99806.22;1720274;81;21083;-57
2021/12/26 03:47:52;;;;;;;4.10;1.70;;;;;;;6.45;87.49;99802.17;1721804;82;21564;-57
2021/12/26 03:50:20;;;;;;;3.85;1.82;;;;;;;6.46;86.85;99803.77;1719606;82;21051;-58
2021/12/26 03:52:50;;;;;;;5.67;2.00;;;;;;;6.51;84.38;99809.25;1721054;82;21148;-64
2021/12/26 03:55:18;;;;;;;4.20;1.85;;;;;;;6.81;80.17;99804.58;1720860;82;20964;-60
2021/12/26 03:57:45;;;;;;;3.87;1.60;;;;;;;6.66;79.29;99803.69;1721995;82;21066;-58
2021/12/26 04:00:14;;;;;;;4.70;2.15;;;;;;;6.76;78.39;99800.41;1715855;79;21021;-58
2021/12/26 04:02:46;;;;;;;4.40;1.98;;;;;;;6.50;79.78;99801.97;1627470;87;21061;-59
2021/12/26 04:05:13;;;;;;;6.17;2.97;;;;;;;6.58;81.78;99798.55;1659109;86;21184;-59
2021/12/26 04:07:41;;;;;;;5.55;2.60;;;;;;;6.77;80.23;99798.62;1659927;86;21108;-58
2021/12/26 04:10:09;;;;;;;8.73;4.75;;;;;;;6.80;78.99;99803.47;1659417;86;21492;-57
2021/12/26 04:12:42;;;;;;;8.63;4.22;;;;;;;7.10;77.17;99802.34;1660619;86;20946;-58
2021/12/26 04:15:13;;;;;;;6.87;3.92;;;;;;;7.02;76.33;99804.00;1658220;86;21472;-62
2021/12/26 04:17:40;;;;;;;6.67;3.52;;;;;;;6.89;77.25;99805.52;1659969;85;21160;-58
2021/12/26 04:20:12;;;;;;;7.10;3.52;;;;;;;6.95;75.94;99810.84;1659483;86;20969;-58
2021/12/26 04:22:39;;;;;;;6.33;3.40;;;;;;;6.93;78.48;99814.11;1645730;86;21134;-61
2021/12/26 04:25:07;;;;;;;8.00;3.90;;;;;;;6.94;77.88;99813.12;1658878;86;21047;-61
2021/12/26 04:27:34;;;;;;;6.12;3.55;;;;;;;6.74;79.94;99817.92;1660396;85;21083;-59
2021/12/26 04:30:02;;;;;;;6.10;3.33;;;;;;;7.01;78.91;99820.53;1658126;86;21946;-59
2021/12/26 04:32:29;;;;;;;5.65;3.35;;;;;;;7.15;77.17;99822.86;1659720;84;21027;-60
2021/12/26 04:34:55;;;;;;;6.37;3.20;;;;;;;7.22;75.61;99822.99;1657387;86;21091;-60
2021/12/26 04:37:22;;;;;;;5.60;2.70;;;;;;;7.10;75.52;99830.85;1659996;86;21149;-58
2021/12/26 04:39:49;;;;;;;5.00;2.47;;;;;;;7.25;73.68;99825.25;1658038;86;21178;-59
2021/12/26 04:42:16;;;;;;;4.70;2.55;;;;;;;7.44;72.29;99808.43;1658092;86;21904;-59
2021/12/26 04:44:43;;;;;;;4.40;2.10;;;;;;;7.14;72.52;99816.56;1658800;86;20979;-57
2021/12/26 04:47:28;;;;;;;5.12;2.30;;;;;;;6.93;73.96;99819.75;1660219;86;22437;-57
2021/12/26 04:49:56;;;;;;;3.67;2.00;;;;;;;7.05;72.54;99826.98;1657607;86;21576;-58
2021/12/26 04:52:24;;;;;;;6.67;2.80;;;;;;;6.77;74.47;99823.23;1660117;86;21033;-57
2021/12/26 04:54:52;;;;;;;6.35;2.80;;;;;;;6.99;73.40;99834.13;1657130;86;21160;-59
2021/12/26 04:57:19;;;;;;;6.17;3.42;;;;;;;7.10;72.24;99836.03;1659852;84;21129;-58
2021/12/26 04:59:48;;;;;;;7.08;3.05;;;;;;;7.28;69.85;99841.77;1665544;86;21017;-59
2021/12/26 05:02:14;;;;;;;6.17;2.85;;;;;;;7.01;70.68;99838.67;1671263;85;21500;-60
2021/12/26 05:04:41;;;;;;;5.62;3.05;;;;;;;6.85;73.22;99843.91;1672722;85;21715;-63
2021/12/26 05:07:10;;;;;;;4.95;2.70;;;;;;;6.78;74.43;99853.33;1670671;85;21096;-60
2021/12/26 05:09:38;;;;;;;5.45;2.72;;;;;;;6.74;75.18;99851.59;1672364;85;21032;-59
2021/12/26 05:12:06;;;;;;;3.90;2.00;;;;;;;6.87;74.58;99840.68;1671532;85;21151;-58
2021/12/26 05:14:33;;;;;;;5.95;2.70;;;;;;;6.68;74.73;99835.41;1670765;85;21024;-58
2021/12/26 05:17:00;;;;;;;5.53;2.70;;;;;;;6.63;76.27;99835.58;1710065;83;21099;-65
2021/12/26 05:19:27;;;;;;;4.58;2.92;;;;;;;6.64;76.53;99847.58;1708575;83;21163;-59
2021/12/26 05:21:53;;;;;;;5.40;2.67;;;;;;;6.69;75.76;99857.74;1673428;85;21567;-61
2021/12/26 05:24:21;;;;;;;5.55;2.80;;;;;;;6.87;74.96;99871.77;1671791;85;21578;-61
2021/12/26 05:26:48;;;;;;;5.60;2.85;;;;;;;6.64;76.22;99862.63;1672820;85;21027;-59
2021/12/26 05:29:15;;;;;;;5.17;2.62;;;;;;;6.79;75.29;99860.15;1670398;85;20973;-63
2021/12/26 05:31:41;;;;;;;4.30;2.62;;;;;;;6.99;73.87;99856.66;1672443;85;21182;-60
2021/12/26 05:34:10;;;;;;;4.58;2.80;;;;;;;6.87;75.78;99856.72;1671418;85;20957;-59
2021/12/26 05:36:37;;;;;;;3.90;2.30;;;;;;;6.87;75.55;99855.42;1672428;85;21044;-60
2021/12/26 05:39:04;;;;;;;4.08;2.50;;;;;;;6.58;77.49;99872.34;1671196;85;21072;-64
2021/12/26 05:41:33;;;;;;;3.10;1.75;;;;;;;7.05;74.93;99862.47;1671780;85;22041;-60
2021/12/26 05:44:05;;;;;;;5.37;3.05;;;;;;;6.87;74.81;99853.63;1666804;85;21191;-59
2021/12/26 05:46:31;;;;;;;6.22;2.92;;;;;;;7.11;72.42;99856.59;1671834;85;21103;-59
2021/12/26 05:48:59;;;;;;;4.60;2.60;;;;;;;7.20;70.42;99848.30;1688552;83;21016;-64
2021/12/26 05:51:30;;;;;;;4.95;3.05;;;;;;;7.20;71.67;99836.63;1709538;83;21214;-60
2021/12/26 05:54:09;;;;;;;6.20;3.77;;;;;;;7.25;71.06;99851.17;1710052;83;20964;-60
2021/12/26 05:56:36;;;;;;;5.78;3.25;;;;;;;7.08;72.04;99867.28;1705724;83;21159;-60
2021/12/26 05:59:04;;;;;;;6.33;2.85;;;;;;;6.93;74.64;99888.41;1671605;85;21057;-60
2021/12/26 06:01:31;;;;;;;5.15;3.02;;;;;;;6.82;77.11;99885.73;1670809;85;21080;-59
2021/12/26 06:03:58;;;;;;;5.20;3.27;;;;;;;6.99;74.13;99901.51;1669265;85;21099;-58
2021/12/26 06:06:25;;;;;;;6.90;3.77;;;;;;;6.64;76.61;99895.49;1669400;85;21039;-59
2021/12/26 06:08:53;;;;;;;5.28;3.05;;;;;;;6.60;77.38;99892.42;1669224;85;21185;-66
2021/12/26 06:11:20;;;;;;;6.42;4.30;;;;;;;6.40;80.43;99884.69;1668834;85;20953;-64
2021/12/26 06:13:47;;;;;;;5.28;3.17;;;;;;;6.62;78.72;99878.00;1665966;85;20960;-59
2021/12/26 06:16:14;;;;;;;6.55;3.20;;;;;;;6.52;79.83;99875.62;1666002;85;21032;-58
2021/12/26 06:18:40;;;;;;;7.15;3.50;;;;;;;6.39;80.66;99890.35;1665056;85;21071;-61
2021/12/26 06:21:12;;;;;;;7.58;4.35;;;;;;;6.57;81.33;99898.73;1614640;85;21157;-59
2021/12/26 06:23:50;;;;;;;8.00;3.80;;;;;;;6.58;79.87;99904.23;1664248;85;21139;-59
2021/12/26 06:26:20;;;;;;;8.08;3.70;;;;;;;6.56;83.78;99918.33;1664608;85;21036;-59
2021/12/26 06:28:47;;;;;;;6.60;3.67;;;;;;;6.76;82.36;99926.04;1662815;85;20981;-59
2021/12/26 06:31:24;;;;;;;6.47;3.27;;;;;;;6.83;82.31;99932.67;1637768;85;21121;-61
2021/12/26 06:33:50;;;;;;;9.43;4.15;;;;;;;7.04;80.17;99944.56;1659175;84;21258;-59
2021/12/26 06:36:36;;;;;;;7.67;4.15;;;;;;;7.17;77.04;99933.68;1661950;85;21084;-62
2021/12/26 06:39:05;;;;;;;6.78;3.92;;;;;;;7.38;75.79;99924.00;1643056;85;21103;-60
2021/12/26 06:41:52;;;;;;;6.90;3.95;;;;;;;7.41;73.11;99917.68;1661955;85;21589;-60
2021/12/26 06:44:37;;;;;;;7.75;4.65;;;;;;;7.31;72.53;99923.06;1663424;85;21089;-60
2021/12/26 06:47:19;;;;;;;9.28;5.15;;;;;;;7.60;70.26;99922.42;1661881;85;21185;-60
2021/12/26 06:49:50;;;;;;;7.80;4.12;;;;;;;7.39;71.87;99933.91;1661516;85;21075;-60
2021/12/26 06:52:20;;;;;;;6.67;3.70;;;;;;;7.42;71.59;99948.61;1664196;84;21013;-60
2021/12/26 06:54:47;;;;;;;6.75;4.10;;;;;;;7.17;74.85;99947.13;1663109;84;21139;-61
2021/12/26 06:57:14;;;;;;;7.80;4.45;;;;;;;7.25;75.71;99948.39;1664490;84;21546;-61
2021/12/26 06:59:40;;;;;;;5.97;3.37;;;;;;;7.37;75.36;99941.84;1659388;84;21478;-61
2021/12/26 07:02:07;;;;;;;7.70;4.03;;;;;;;7.41;74.95;99942.31;1659670;84;21083;-65
2021/12/26 07:04:42;;;;;;;7.97;4.03;;;;;;;7.26;74.46;99938.33;1666557;84;21647;-60
2021/12/26 07:07:09;;;;;;;17.87;5.95;;;;;;;7.41;73.33;99945.71;1669239;85;21064;-66
2021/12/26 07:09:38;;;;;;;11.65;6.05;;;;;;;7.62;72.46;99950.80;1668926;85;20973;-61
2021/12/26 07:12:06;;;;;;;12.13;5.60;;;;;;;7.67;69.79;99943.31;1658583;85;21167;-66
2021/12/26 07:14:37;;;;;;;8.38;4.00;;;;;;;7.78;68.78;99939.83;1654324;86;21061;-60
2021/12/26 07:17:07;;;;;;;10.88;5.00;;;;;;;7.76;68.60;99941.77;1651014;85;21561;-61
2021/12/26 07:19:36;;;;;;;9.03;5.15;;;;;;;7.82;68.25;99947.27;1654874;86;21723;-60
2021/12/26 07:22:04;;;;;;;7.95;4.75;;;;;;;7.62;70.28;99962.48;1645214;86;21029;-66
2021/12/26 07:24:31;;;;;;;12.50;6.80;;;;;;;7.99;68.35;99976.84;1634707;86;22116;-59
2021/12/26 07:26:59;;;;;;;10.93;6.37;;;;;;;8.08;68.62;99990.56;1642909;85;21049;-59
2021/12/26 07:29:39;;;;;;;10.70;6.25;;;;;;;8.53;64.69;99997.54;1611916;86;21076;-61
2021/12/26 07:32:07;;;;;;;8.03;5.10;;;;;;;8.42;63.96;99996.66;1641831;86;21022;-69
2021/12/26 07:34:34;;;;;;;11.43;7.37;;;;;;;8.37;63.37;99996.39;1641904;86;21185;-65
2021/12/26 07:37:06;;;;;;;16.80;10.28;;;;;;;8.08;64.41;99994.95;1631888;86;21210;-59
2021/12/26 07:39:35;;;;;;;15.55;10.25;;;;;;;7.45;68.72;100000.64;1651493;85;21144;-62
2021/12/26 07:42:04;;;;;;;23.40;15.45;;;;;;;7.59;69.79;100001.72;1642589;85;21577;-62
2021/12/26 07:44:47;;;;;;;15.13;8.20;;;;;;;7.52;70.60;100009.36;1613612;86;21147;-61
2021/12/26 07:47:19;;;;;;;9.68;5.53;;;;;;;7.69;70.45;100021.30;1636958;85;22438;-60
2021/12/26 07:49:46;;;;;;;9.18;4.50;;;;;;;7.82;68.81;100023.33;1641549;85;21164;-61
2021/12/26 07:52:21;;;;;;;7.25;4.70;;;;;;;7.89;68.57;100025.56;1604717;85;21129;-60
2021/12/26 07:55:09;;;;;;;8.35;4.62;;;;;;;7.95;67.50;100027.95;1650169;86;21052;-61
2021/12/26 07:57:53;;;;;;;8.30;5.30;;;;;;;8.05;66.70;100016.37;1646655;85;21022;-62
2021/12/26 08:00:40;;;;;;;13.78;7.50;;;;;;;8.23;67.24;100012.69;1649989;85;21077;-61
2021/12/26 08:03:14;;;;;;;13.15;7.30;;;;;;;8.35;63.57;99998.80;1652803;86;21197;-64
2021/12/26 08:06:00;;;;;;;10.45;6.58;;;;;;;8.18;65.17;99996.80;1662290;85;21514;-62
2021/12/26 08:08:42;;;;;;;11.85;6.35;;;;;;;8.81;63.14;100002.64;1659361;85;21005;-67
2021/12/26 08:11:09;;;;;;;10.40;6.90;;;;;;;7.79;66.43;100018.47;1641622;86;21080;-61
2021/12/26 08:13:38;;;;;;;12.85;7.05;;;;;;;8.21;67.47;100014.14;1658202;86;21085;-61
2021/12/26 08:16:05;;;;;;;11.68;5.87;;;;;;;8.19;65.41;100034.80;1659160;86;21879;-61
2021/12/26 08:18:33;;;;;;;10.48;5.80;;;;;;;8.19;64.99;100027.00;1659818;85;21000;-68
2021/12/26 08:21:00;;;;;;;8.43;5.08;;;;;;;8.73;63.42;100016.03;1658151;86;21184;-61
2021/12/26 08:23:27;;;;;;;11.93;6.05;;;;;;;9.34;59.66;100017.67;1660736;85;21598;-61
2021/12/26 08:25:55;;;;;;;12.20;6.95;;;;;;;9.41;58.02;100016.77;1655702;84;21011;-62
2021/12/26 08:28:23;;;;;;;14.85;7.25;;;;;;;9.43;57.47;100013.51;1659027;84;21854;-62
2021/12/26 08:30:49;;;;;;;13.60;8.65;;;;;;;9.55;56.34;100006.05;1658126;86;21553;-67
2021/12/26 08:33:16;;;;;;;13.30;8.50;;;;;;;9.64;56.31;100015.84;1659757;86;21119;-61
2021/12/26 08:35:46;;;;;;;15.32;9.35;;;;;;;9.41;56.10;100005.06;1658532;86;21029;-61
2021/12/26 08:38:16;;;;;;;17.92;10.93;;;;;;;9.36;57.21;100001.41;1661078;86;21570;-61
2021/12/26 08:40:43;;;;;;;14.23;8.13;;;;;;;9.36;57.39;100012.61;1658355;86;21107;-67
2021/12/26 08:43:09;;;;;;;13.18;7.45;;;;;;;9.58;56.88;100008.75;1656597;84;21147;-63
2021/12/26 08:45:37;;;;;;;11.15;6.85;;;;;;;9.60;56.49;100010.20;1659487;86;21179;-60
2021/12/26 08:48:04;;;;;;;10.48;6.40;;;;;;;9.80;55.10;100020.82;1660537;85;21096;-61
2021/12/26 08:50:32;;;;;;;13.22;7.72;;;;;;;9.23;55.85;100012.43;1659794;85;21531;-62
2021/12/26 08:52:59;;;;;;;10.68;6.50;;;;;;;8.12;61.26;100033.86;1658782;85;21142;-70
2021/12/26 08:55:25;;;;;;;11.73;7.40;;;;;;;8.36;62.65;100022.48;1658851;86;21044;-62
2021/12/26 08:57:52;;;;;;;11.60;6.42;;;;;;;8.65;61.95;100024.40;1655334;86;21152;-61
2021/12/26 09:00:19;;;;;;;12.15;6.55;;;;;;;8.93;61.37;100016.31;1659706;86;21475;-63
2021/12/26 09:02:46;;;;;;;10.25;6.50;;;;;;;9.09;60.20;99994.56;1675109;83;20972;-71
2021/12/26 09:05:13;;;;;;;10.03;6.53;;;;;;;8.63;61.26;100002.97;1711151;83;21156;-64
2021/12/26 09:07:39;;;;;;;9.63;6.28;;;;;;;8.58;62.91;100016.48;1684765;83;21085;-61
2021/12/26 09:10:09;;;;;;;10.03;6.47;;;;;;;9.27;60.71;100018.88;1672107;85;21013;-61
2021/12/26 09:12:37;;;;;;;9.88;6.50;;;;;;;9.54;58.58;100011.41;1661923;86;21020;-62
2021/12/26 09:15:05;;;;;;;10.15;7.30;;;;;;;8.83;60.03;100006.69;1709165;83;21005;-63
2021/12/26 09:17:36;;;;;;;9.23;6.20;;;;;;;8.99;59.53;99997.91;1707522;83;22328;-63
2021/12/26 09:20:00;;;;;;;10.13;7.15;;;;;;;8.97;59.33;100003.27;1710862;83;21010;-60
2021/12/26 09:22:27;;;;;;;10.13;6.22;;;;;;;8.88;59.56;100001.75;1707899;83;21141;-60
2021/12/26 09:24:53;;;;;;;10.30;6.60;;;;;;;8.88;58.23;100004.35;1708515;83;21066;-59
2021/12/26 09:27:19;;;;;;;8.93;5.95;;;;;;;8.75;58.53;100019.73;1670151;85;21534;-66
2021/12/26 09:29:46;;;;;;;9.53;5.42;;;;;;;8.74;59.12;100032.42;1656029;84;21159;-61
2021/12/26 09:32:13;;;;;;;9.38;6.50;;;;;;;9.12;58.53;100023.28;1703664;83;21075;-60
2021/12/26 09:34:40;;;;;;;11.28;7.92;;;;;;;9.25;57.66;100027.37;1667102;85;21484;-60
2021/12/26 09:37:08;;;;;;;10.30;7.28;;;;;;;9.17;57.50;100026.17;1655845;84;21594;-68
2021/12/26 09:39:35;;;;;;;9.53;6.25;;;;;;;9.20;57.91;100023.19;1704275;82;21019;-61
2021/12/26 09:42:02;;;;;;;7.90;5.47;;;;;;;9.14;57.39;100027.33;1705063;82;21229;-64
2021/12/26 09:44:29;;;;;;;7.87;5.50;;;;;;;9.17;56.48;100041.77;1669702;85;21316;-63
2021/12/26 09:46:55;;;;;;;9.08;5.70;;;;;;;9.18;56.03;100031.18;1663147;84;21096;-62
2021/12/26 09:49:22;;;;;;;9.10;5.97;;;;;;;9.23;55.38;100041.84;1709351;81;21103;-69
2021/12/26 09:51:52;;;;;;;8.53;5.53;;;;;;;9.04;55.66;100057.97;1674281;83;21032;-65
2021/12/26 09:54:22;;;;;;;8.60;5.60;;;;;;;9.15;54.98;100057.53;1662440;84;21134;-62
2021/12/26 09:56:48;;;;;;;7.10;5.05;;;;;;;9.46;54.68;100044.84;1706969;81;20939;-61
2021/12/26 09:59:19;;;;;;;8.10;5.20;;;;;;;9.61;54.25;100043.52;1671664;85;21594;-60
2021/12/26 10:01:49;;;;;;;;;;;;;;;9.78;53.53;100047.55;1682556;85;21033;-68
2021/12/26 10:04:27;;;;;;;10.40;6.53;;;;;;;9.05;55.18;100046.58;1670429;83;21262;-64
2021/12/26 10:07:04;;;;;;;8.65;5.55;;;;;;;9.28;55.03;100044.39;1708349;82;21161;-62
2021/12/26 10:09:32;;;;;;;10.30;5.65;;;;;;;9.43;54.00;100036.92;1705164;82;21620;-70
2021/12/26 10:12:00;;;;;;;7.72;4.92;;;;;;;9.21;54.35;100039.12;1702852;82;21153;-64
2021/12/26 10:14:31;;;;;;;8.45;5.03;;;;;;;9.45;54.96;100037.53;1695055;82;21161;-64
2021/12/26 10:17:08;;;;;;;8.03;5.40;;;;;;;9.92;55.47;100043.28;1705903;82;21600;-62
2021/12/26 10:19:40;;;;;;;6.83;4.60;;;;;;;10.36;53.78;100044.47;1661087;85;20953;-68
2021/12/26 10:22:07;;;;;;;7.12;5.00;;;;;;;10.73;52.47;100040.47;1660001;85;22278;-63
2021/12/26 10:24:43;;;;;;;8.27;4.83;;;;;;;11.18;52.05;100038.66;1665995;84;21089;-63
2021/12/26 10:27:13;;;;;;;12.73;7.53;;;;;;;11.70;51.62;100043.00;1658899;84;21783;-65
2021/12/26 10:29:47;;;;;;;11.20;7.47;;;;;;;12.04;49.50;100038.22;1674493;84;21856;-62
2021/12/26 10:32:22;;;;;;;12.57;8.03;;;;;;;12.28;48.48;100040.78;1669948;85;21281;-60
2021/12/26 10:34:59;;;;;;;11.83;7.90;;;;;;;12.19;47.29;100036.73;1669913;85;21245;-61
2021/12/26 10:37:35;;;;;;;9.27;6.33;;;;;;;12.25;46.76;100046.41;1669672;85;21342;-61
2021/12/26 10:40:09;;;;;;;11.10;6.93;;;;;;;12.07;45.71;100039.63;1669604;85;21222;-60
2021/12/26 10:42:40;;;;;;;13.73;9.70;;;;;;;11.62;46.47;100037.95;1669737;85;21243;-71
2021/12/26 10:45:13;;;;;;;14.90;9.63;;;;;;;11.33;46.16;100039.85;1669473;85;39160;-62
2021/12/26 10:47:45;;;;;;;9.87;6.77;;;;;;;11.18;46.25;100044.39;1667777;85;21266;-60
2021/12/26 10:50:18;;;;;;;9.68;6.47;;;;;;;10.80;46.44;100039.52;1669030;85;21096;-60
2021/12/26 10:52:59;;;;;;;9.53;6.40;;;;;;;10.45;46.10;100044.66;1669136;84;20957;-65
2021/12/26 10:55:40;;;;;;;9.27;6.83;;;;;;;10.13;46.89;100052.92;1670210;85;21435;-60
2021/12/26 10:58:18;;;;;;;;;;;;;;;10.24;47.05;100057.65;1669053;84;21259;-70
2021/12/26 11:00:47;;;;;;;8.00;5.72;;;;;;;10.28;47.07;100052.91;1663152;85;21080;-60
2021/12/26 11:03:22;;;;;;;10.63;6.80;;;;;;;10.07;46.70;100052.35;1667054;84;21238;-61
2021/12/26 11:05:55;;;;;;;11.48;7.08;;;;;;;9.99;45.48;100054.08;1690534;83;20971;-60
2021/12/26 11:08:35;;;;;;;12.47;7.95;;;;;;;9.43;45.95;100054.30;1692075;83;20959;-60
2021/12/26 11:11:11;;;;;;;16.30;9.65;;;;;;;9.25;46.45;100061.19;1690546;83;21159;-61
2021/12/26 11:13:39;;;;;;;14.40;9.30;;;;;;;9.07;46.74;100056.32;1684622;84;20913;-69
2021/12/26 11:16:07;;;;;;;16.02;8.65;;;;;;;9.15;47.07;100058.03;1687659;84;22419;-60
2021/12/26 11:18:35;;;;;;;12.58;7.55;;;;;;;9.11;46.94;100056.78;1693065;83;21114;-60
2021/12/26 11:21:05;;;;;;;14.93;9.03;;;;;;;8.92;46.57;100059.39;1694354;83;21106;-68
2021/12/26 11:23:38;;;;;;;14.95;10.18;;;;;;;8.87;46.52;100061.23;1694396;83;21139;-66
2021/12/26 11:26:16;;;;;;;14.53;8.60;;;;;;;8.80;46.63;100063.41;1690736;83;21114;-61
2021/12/26 11:28:45;;;;;;;16.40;9.90;;;;;;;9.10;46.44;100061.17;1661193;84;21049;-61
2021/12/26 11:31:19;;;;;;;9.95;6.78;;;;;;;9.49;45.61;100063.50;1662557;84;21065;-62
2021/12/26 11:33:49;;;;;;;12.30;7.47;;;;;;;8.75;46.18;100070.41;1660638;84;21083;-63
2021/12/26 11:36:18;;;;;;;14.23;8.53;;;;;;;8.55;46.31;100075.78;1661384;84;21208;-65
2021/12/26 11:38:47;;;;;;;14.63;9.05;;;;;;;8.51;46.06;100074.83;1661307;84;21024;-63
2021/12/26 11:42:07;;;;;;;13.75;9.08;;;;;;;8.33;45.77;100077.36;1660735;84;21099;-63
2021/12/26 11:45:30;;;;;;;16.97;10.43;;;;;;;8.29;45.97;100079.49;1658806;84;21596;-63
2021/12/26 11:49:09;;;;;;;19.73;10.55;;;;;;;8.16;46.38;100086.56;1613743;87;20998;-61
2021/12/26 11:52:21;;;;;;;17.27;10.65;;;;;;;7.78;47.02;100086.92;1662144;84;20957;-61
2021/12/26 11:55:22;;;;;;;21.73;12.63;;;;;;;7.54;47.01;100093.83;1662774;84;21012;-61
2021/12/26 11:58:21;;;;;;;19.90;12.45;;;;;;;7.45;46.98;100096.10;1661084;84;21849;-71
2021/12/26 12:00:51;;;;;;;17.12;10.58;;;;;;;7.07;46.94;100099.74;1661642;84;21037;-62
2021/12/26 12:03:24;;;;;;;19.52;11.60;;;;;;;6.71;47.33;100097.99;1657647;84;22369;-71